Time;durP1;ratioP1;P1;durP2;ratioP2;P2;SDS_P1;SDS_P2;PMS_P1;PMS_P2;Temp;Humidity;BMP_temperature;BMP_pressure;BME280_temperature;BME280_humidity;BME280_pressure;Samples;Min_cycle;Max_cycle;Signal;HPM_P1;HPM_P2
2023/10/30 00:00:51;;;;;;;2.33;1.33;;;13.60;91.50;;;14.95;63.39;99693.63;3080587;46;20517;-67
2023/10/30 00:03:20;;;;;;;3.40;0.90;;;13.60;91.40;;;14.88;63.35;99699.00;3081646;46;20455;-67
2023/10/30 00:05:48;;;;;;;2.97;1.40;;;13.60;91.30;;;14.91;63.34;99698.56;3080947;46;20432;-67
2023/10/30 00:08:17;;;;;;;5.10;1.40;;;13.60;91.40;;;14.93;63.29;99698.31;3081663;46;20535;-68
2023/10/30 00:10:45;;;;;;;4.30;1.00;;;13.60;91.30;;;14.98;63.03;99689.69;3080424;46;20589;-68
2023/10/30 00:13:14;;;;;;;2.47;1.17;;;13.60;91.40;;;15.02;62.90;99699.63;3080681;46;20442;-67
2023/10/30 00:15:42;;;;;;;3.20;1.00;;;13.60;91.40;;;15.06;63.01;99706.06;3081254;46;20495;-68
2023/10/30 00:18:10;;;;;;;1.83;1.03;;;13.60;91.30;;;15.06;62.48;99715.84;3081386;46;20460;-67
2023/10/30 00:20:39;;;;;;;2.80;1.30;;;13.60;91.20;;;15.03;62.52;99708.34;3080244;46;20439;-66
2023/10/30 00:23:08;;;;;;;2.53;0.83;;;13.60;91.10;;;15.05;62.65;99714.25;3080740;46;20571;-67
2023/10/30 00:25:36;;;;;;;3.40;1.03;;;13.60;91.20;;;15.02;62.67;99718.16;3080877;46;20442;-71
2023/10/30 00:28:05;;;;;;;1.10;1.00;;;13.60;91.00;;;15.01;62.46;99713.88;3081255;46;20439;-67
2023/10/30 00:30:34;;;;;;;4.17;1.30;;;13.60;91.00;;;15.02;62.64;99720.00;3079857;46;20531;-69
2023/10/30 00:33:02;;;;;;;5.73;1.20;;;13.60;91.00;;;15.01;62.45;99726.31;3079487;46;20439;-69
2023/10/30 00:35:30;;;;;;;2.60;1.10;;;13.60;91.20;;;15.01;62.60;99735.09;3081017;46;20427;-66
2023/10/30 00:37:59;;;;;;;4.23;1.50;;;13.60;91.10;;;14.94;62.64;99729.09;3080630;46;20448;-68
2023/10/30 00:40:27;;;;;;;2.33;1.27;;;13.50;91.10;;;14.96;62.64;99742.09;3080446;46;20528;-66
2023/10/30 00:42:56;;;;;;;4.27;1.00;;;13.50;91.10;;;14.94;62.55;99734.38;3079901;46;20500;-69
2023/10/30 00:45:24;;;;;;;2.03;1.00;;;13.50;91.20;;;14.95;62.80;99740.50;3081103;46;20565;-67
2023/10/30 00:47:53;;;;;;;2.70;1.00;;;13.50;91.20;;;14.94;62.75;99734.38;3080484;46;21046;-66
2023/10/30 00:50:22;;;;;;;4.23;1.20;;;13.50;91.30;;;14.92;62.88;99752.34;3080498;46;20443;-67
2023/10/30 00:52:50;;;;;;;6.03;1.60;;;13.50;91.30;;;14.93;62.64;99742.56;3080215;46;20484;-67
2023/10/30 00:55:19;;;;;;;2.93;1.20;;;13.50;91.30;;;14.95;62.84;99748.44;3080600;46;20426;-67
2023/10/30 00:57:47;;;;;;;2.53;1.30;;;13.50;91.30;;;14.98;62.94;99761.22;3080966;46;20427;-67
2023/10/30 01:00:16;;;;;;;3.30;1.20;;;13.50;91.40;;;15.03;62.84;99753.41;3080451;46;20498;-67
2023/10/30 01:02:44;;;;;;;3.03;1.17;;;13.50;91.40;;;15.04;62.68;99752.38;3080151;46;20431;-68
2023/10/30 01:05:13;;;;;;;3.33;1.03;;;13.50;91.40;;;15.03;62.80;99748.91;3080378;46;21119;-67
2023/10/30 01:07:43;;;;;;;5.13;1.43;;;13.50;91.30;;;15.05;62.74;99748.72;3080587;46;20427;-67
2023/10/30 01:10:11;;;;;;;2.93;1.33;;;13.50;91.30;;;15.02;62.56;99749.97;3079891;46;21080;-67
2023/10/30 01:12:39;;;;;;;3.10;1.30;;;13.60;91.40;;;15.04;62.61;99749.72;3080120;46;21035;-68
2023/10/30 01:15:08;;;;;;;4.60;1.40;;;13.50;91.30;;;15.01;63.06;99760.78;3080914;46;20447;-69
2023/10/30 01:17:37;;;;;;;3.37;1.20;;;13.60;91.30;;;14.99;62.75;99757.56;3080676;46;20587;-67
2023/10/30 01:20:07;;;;;;;4.73;1.27;;;13.60;91.40;;;14.99;62.92;99768.16;3079764;46;20439;-68
2023/10/30 01:22:35;;;;;;;5.23;1.60;;;13.60;91.40;;;14.93;63.32;99774.38;3080068;46;20431;-67
2023/10/30 01:25:04;;;;;;;5.20;1.30;;;13.60;91.40;;;14.91;63.35;99772.75;3081115;46;20427;-67
2023/10/30 01:27:32;;;;;;;5.20;1.17;;;13.60;91.40;;;14.89;63.14;99774.81;3080133;46;20505;-67
2023/10/30 01:30:00;;;;;;;2.80;1.10;;;13.50;91.40;;;14.87;63.40;99776.88;3080428;46;21043;-68
2023/10/30 01:32:29;;;;;;;6.27;1.40;;;13.50;91.40;;;14.85;63.52;99783.44;3080232;46;20545;-68
2023/10/30 01:34:57;;;;;;;6.63;1.50;;;13.50;91.50;;;14.84;63.77;99787.94;3080473;46;21176;-68
2023/10/30 01:37:26;;;;;;;4.30;1.67;;;13.50;91.50;;;14.84;63.78;99771.22;3079994;46;20503;-68
2023/10/30 01:39:54;;;;;;;3.13;1.20;;;13.50;91.60;;;14.78;63.83;99772.94;3080131;46;20439;-67
2023/10/30 01:42:23;;;;;;;6.27;1.60;;;13.50;91.70;;;14.77;63.91;99781.91;3079567;46;21168;-67
2023/10/30 01:44:57;;;;;;;4.70;1.90;;;13.50;91.70;;;14.75;64.29;99794.59;3080540;46;20431;-67
2023/10/30 01:47:26;;;;;;;4.97;1.73;;;13.50;91.80;;;14.77;64.03;99783.75;3083014;46;20997;-67
2023/10/30 01:49:57;;;;;;;4.27;1.30;;;13.50;91.90;;;14.76;64.55;99796.19;3082664;46;20450;-66
2023/10/30 01:52:29;;;;;;;6.67;1.60;;;13.40;92.00;;;14.78;64.34;99799.44;3081505;46;20568;-68
2023/10/30 01:54:58;;;;;;;6.33;1.57;;;13.40;92.00;;;14.76;64.63;99801.47;3081390;46;21159;-66
2023/10/30 01:57:28;;;;;;;4.37;1.20;;;13.40;92.10;;;14.75;64.99;99799.06;3082828;46;20480;-69
2023/10/30 01:59:58;;;;;;;4.83;1.90;;;13.40;92.10;;;14.77;64.89;99804.94;3081742;46;20471;-68
2023/10/30 02:02:31;;;;;;;3.57;1.37;;;13.40;92.20;;;14.73;64.81;99807.25;3082039;46;20481;-69
2023/10/30 02:05:00;;;;;;;6.87;1.57;;;13.40;92.20;;;14.72;65.00;99804.81;3082627;46;20423;-66
2023/10/30 02:07:30;;;;;;;5.20;1.67;;;13.40;92.20;;;14.78;64.70;99807.38;3082517;46;20556;-70
2023/10/30 02:09:59;;;;;;;5.70;1.60;;;13.40;92.20;;;14.82;64.70;99810.38;3082673;46;20609;-66
2023/10/30 02:12:27;;;;;;;6.43;1.57;;;13.40;92.20;;;14.85;64.72;99808.09;3081788;46;20426;-68
2023/10/30 02:14:55;;;;;;;5.93;1.70;;;13.50;92.30;;;14.88;64.85;99809.50;3082252;46;20581;-68
2023/10/30 02:17:24;;;;;;;7.67;1.60;;;13.50;92.30;;;14.91;64.53;99815.13;3082917;46;20459;-67
2023/10/30 02:19:52;;;;;;;7.67;2.07;;;13.50;92.40;;;14.94;64.91;99813.88;3081803;46;20939;-68
2023/10/30 02:22:21;;;;;;;4.23;1.63;;;13.50;92.40;;;14.99;64.51;99806.06;3081312;46;20427;-66
2023/10/30 02:24:49;;;;;;;5.40;1.63;;;13.50;92.40;;;15.02;64.72;99813.56;3082613;46;20624;-68
2023/10/30 02:27:17;;;;;;;2.87;2.17;;;13.50;92.40;;;15.07;64.43;99812.91;3081691;46;20546;-67
2023/10/30 02:29:46;;;;;;;3.43;1.70;;;13.60;92.40;;;15.11;64.29;99814.06;3081621;46;20442;-68
2023/10/30 02:32:14;;;;;;;4.97;1.77;;;13.60;92.40;;;15.12;64.43;99813.03;3081261;46;20435;-67
2023/10/30 02:34:43;;;;;;;4.10;1.80;;;13.60;92.30;;;15.11;64.21;99814.06;3081502;46;20930;-68
2023/10/30 02:37:11;;;;;;;4.63;1.73;;;13.60;92.30;;;15.11;64.31;99814.88;3082361;46;20507;-67
2023/10/30 02:39:40;;;;;;;5.60;1.30;;;13.60;92.20;;;15.10;64.25;99815.06;3082129;46;20509;-69
2023/10/30 02:42:09;;;;;;;7.67;1.90;;;13.60;92.20;;;15.10;64.26;99818.53;3081396;46;20565;-67
2023/10/30 02:44:37;;;;;;;6.30;1.53;;;13.70;92.30;;;15.10;64.42;99825.66;3081248;46;20463;-69
2023/10/30 02:47:05;;;;;;;3.50;1.43;;;13.70;92.30;;;15.10;64.43;99818.53;3082087;46;20471;-66
2023/10/30 02:49:35;;;;;;;8.53;1.60;;;13.70;92.30;;;15.12;64.50;99821.75;3081938;46;20761;-67
2023/10/30 02:52:04;;;;;;;3.67;1.60;;;13.70;92.30;;;15.09;64.37;99813.47;3081737;46;20505;-67
2023/10/30 02:54:32;;;;;;;6.60;1.73;;;13.70;92.60;;;15.05;64.36;99820.28;3082385;46;20460;-67
2023/10/30 02:57:01;;;;;;;7.80;2.27;;;13.70;92.30;;;15.02;64.68;99813.56;3081758;46;20521;-67
2023/10/30 02:59:29;;;;;;;7.13;2.07;;;13.70;92.20;;;15.04;64.69;99824.75;3081796;46;20450;-68
2023/10/30 03:01:58;;;;;;;8.83;1.93;;;13.70;92.20;;;15.07;64.58;99823.50;3081048;46;20455;-69
2023/10/30 03:04:26;;;;;;;8.00;2.27;;;13.70;92.30;;;15.08;64.34;99820.59;3081565;46;20994;-68
2023/10/30 03:06:58;;;;;;;8.20;2.23;;;13.60;92.30;;;15.10;64.42;99829.13;3082250;46;21042;-67
2023/10/30 03:09:33;;;;;;;4.47;1.77;;;13.60;92.20;;;15.11;64.51;99824.66;3081626;46;20455;-68
2023/10/30 03:12:01;;;;;;;7.97;2.00;;;13.60;92.20;;;15.12;64.16;99832.38;3081527;46;20440;-67
2023/10/30 03:14:29;;;;;;;5.60;1.87;;;13.60;92.20;;;15.11;64.50;99820.16;3081767;46;20568;-66
2023/10/30 03:16:58;;;;;;;3.93;1.87;;;13.70;92.30;;;15.11;64.20;99833.41;3082151;46;20475;-69
2023/10/30 03:19:26;;;;;;;8.37;2.10;;;13.70;92.30;;;15.11;64.32;99835.25;3081266;46;20561;-68
2023/10/30 03:21:55;;;;;;;6.13;1.73;;;13.70;92.60;;;15.10;64.34;99833.63;3080958;46;21116;-69
2023/10/30 03:24:23;;;;;;;7.50;1.77;;;13.70;92.30;;;15.13;64.39;99839.28;3081268;46;20477;-70
2023/10/30 03:26:52;;;;;;;7.20;2.33;;;13.70;92.30;;;15.10;64.50;99836.28;3081253;46;20517;-68
2023/10/30 03:29:20;;;;;;;5.27;2.13;;;13.70;92.30;;;15.13;64.57;99834.00;3081060;46;20565;-67
2023/10/30 03:31:52;;;;;;;6.00;1.87;;;13.70;92.30;;;15.14;64.44;99822.34;3080974;46;20553;-68
2023/10/30 03:34:21;;;;;;;7.33;1.83;;;13.70;92.30;;;15.13;64.34;99841.94;3081339;46;20493;-67
2023/10/30 03:36:50;;;;;;;5.83;1.90;;;13.70;92.30;;;15.11;64.25;99843.22;3080321;46;20431;-68
2023/10/30 03:39:18;;;;;;;5.67;1.40;;;13.70;92.20;;;15.10;64.25;99845.03;3081177;46;20485;-67
2023/10/30 03:41:46;;;;;;;6.60;2.00;;;13.70;92.20;;;15.12;64.31;99858.09;3080856;46;20493;-67
2023/10/30 03:44:15;;;;;;;5.27;1.93;;;13.70;92.20;;;15.12;64.21;99852.78;3081553;46;20567;-67
2023/10/30 03:46:44;;;;;;;10.70;2.20;;;13.70;92.20;;;15.13;64.08;99854.38;3081510;46;20438;-67
2023/10/30 03:49:12;;;;;;;6.00;2.10;;;13.70;92.20;;;15.10;64.35;99852.19;3081009;46;20557;-69
2023/10/30 03:51:51;;;;;;;4.73;2.00;;;13.70;92.20;;;15.10;64.01;99854.81;3080405;46;20432;-69
2023/10/30 03:54:20;;;;;;;6.57;2.00;;;13.70;92.20;;;15.08;64.37;99851.59;3080100;46;21017;-68
2023/10/30 03:56:48;;;;;;;7.07;2.03;;;13.70;92.10;;;15.10;64.33;99845.03;3081403;46;20427;-68
2023/10/30 03:59:17;;;;;;;6.60;1.50;;;13.70;92.20;;;15.12;64.55;99847.47;3081245;46;20460;-66
2023/10/30 04:01:45;;;;;;;8.87;2.10;;;13.70;92.10;;;15.14;64.16;99848.06;3080817;46;21029;-67
2023/10/30 04:04:13;;;;;;;5.47;2.33;;;13.70;92.10;;;15.13;64.03;99849.09;3081622;46;20557;-67
2023/10/30 04:06:43;;;;;;;7.00;2.20;;;13.70;92.10;;;15.14;64.10;99856.00;3080998;46;20431;-67
2023/10/30 04:09:11;;;;;;;8.13;2.00;;;13.70;92.10;;;15.13;64.03;99851.72;3080219;46;20585;-66
2023/10/30 04:11:40;;;;;;;10.57;2.43;;;13.70;92.10;;;15.13;63.71;99851.72;3080582;46;20416;-68
2023/10/30 04:14:08;;;;;;;4.90;2.07;;;13.70;92.00;;;15.11;64.02;99851.16;3081673;46;20508;-67
2023/10/30 04:16:36;;;;;;;12.13;2.20;;;13.70;92.00;;;15.10;63.84;99854.81;3081151;46;21134;-66
2023/10/30 04:19:08;;;;;;;9.53;2.03;;;13.70;92.00;;;15.07;64.18;99855.31;3081040;46;20556;-68
2023/10/30 04:21:37;;;;;;;9.83;2.13;;;13.70;91.90;;;15.07;63.85;99861.38;3080733;46;21124;-70
2023/10/30 04:24:06;;;;;;;12.50;2.43;;;13.70;91.90;;;15.07;64.01;99850.00;3080592;46;21025;-66
2023/10/30 04:26:34;;;;;;;5.97;2.20;;;13.70;91.90;;;15.08;63.86;99856.91;3080523;46;20565;-66
2023/10/30 04:29:03;;;;;;;5.60;1.83;;;13.70;92.00;;;15.09;63.93;99859.34;3080700;46;20548;-68
2023/10/30 04:31:31;;;;;;;6.87;2.10;;;13.60;91.90;;;15.11;63.71;99854.63;3081280;46;20541;-67
2023/10/30 04:34:00;;;;;;;9.50;2.57;;;13.70;92.00;;;15.08;63.95;99856.91;3080208;46;20436;-66
2023/10/30 04:36:28;;;;;;;6.23;2.30;;;13.60;91.90;;;15.10;63.86;99860.13;3080802;46;20565;-66
2023/10/30 04:38:56;;;;;;;7.03;1.93;;;13.60;91.90;;;15.06;63.90;99851.03;3080550;46;20432;-69
2023/10/30 04:41:25;;;;;;;8.10;2.10;;;13.60;91.90;;;15.06;63.92;99851.84;3080984;46;20593;-69
2023/10/30 04:43:53;;;;;;;8.73;2.07;;;13.60;91.90;;;15.06;63.80;99859.78;3080517;46;20459;-67
2023/10/30 04:46:21;;;;;;;7.97;2.33;;;13.60;91.90;;;15.04;63.77;99863.69;3079725;46;20439;-67
2023/10/30 04:48:50;;;;;;;7.73;2.13;;;13.60;91.90;;;15.06;64.06;99866.94;3080326;46;20553;-66
2023/10/30 04:51:18;;;;;;;8.33;3.00;;;13.60;92.00;;;15.04;64.10;99874.28;3080559;46;20443;-67
2023/10/30 04:53:47;;;;;;;6.37;1.97;;;13.60;92.00;;;15.00;64.13;99870.47;3079799;46;20440;-66
2023/10/30 04:56:15;;;;;;;6.43;2.47;;;13.60;92.00;;;15.01;64.11;99872.09;3080933;46;20423;-67
2023/10/30 04:58:43;;;;;;;5.50;1.97;;;13.60;92.00;;;15.04;64.11;99876.94;3080922;46;20427;-68
2023/10/30 05:01:13;;;;;;;8.20;2.40;;;13.60;92.00;;;15.06;64.10;99872.22;3080608;46;21182;-68
2023/10/30 05:03:41;;;;;;;7.97;2.23;;;13.60;92.00;;;15.05;63.89;99870.63;3080243;46;20440;-67
2023/10/30 05:06:10;;;;;;;5.97;2.27;;;13.60;92.00;;;15.03;64.14;99873.47;3080821;46;20438;-67
2023/10/30 05:08:38;;;;;;;5.87;2.20;;;13.60;92.10;;;15.01;63.90;99872.09;3080419;46;20427;-67
2023/10/30 05:11:06;;;;;;;8.53;2.13;;;13.60;92.10;;;14.98;64.18;99862.75;3080496;46;20564;-66
2023/10/30 05:13:35;;;;;;;8.50;1.80;;;13.60;92.10;;;14.95;64.25;99870.34;3080037;46;20431;-67
2023/10/30 05:16:04;;;;;;;7.33;1.90;;;13.60;92.40;;;14.93;64.42;99872.41;3080519;46;20584;-67
2023/10/30 05:18:32;;;;;;;5.27;1.90;;;13.50;92.10;;;14.89;64.69;99870.22;3080568;46;20506;-67
2023/10/30 05:21:01;;;;;;;7.87;2.23;;;13.50;92.20;;;14.87;64.57;99876.75;3081640;46;21347;-67
2023/10/30 05:23:30;;;;;;;6.53;2.50;;;13.50;92.20;;;14.85;64.56;99873.53;3082478;46;21063;-69
2023/10/30 05:25:58;;;;;;;6.33;2.30;;;13.50;92.20;;;14.86;64.62;99870.66;3082237;46;21135;-67
2023/10/30 05:28:27;;;;;;;5.50;1.70;;;13.50;92.20;;;14.87;64.75;99868.81;3082901;46;21111;-69
2023/10/30 05:30:56;;;;;;;6.90;1.97;;;13.50;92.30;;;14.88;64.49;99868.56;3082866;46;20532;-68
2023/10/30 05:33:25;;;;;;;5.23;2.20;;;13.40;92.30;;;14.90;64.74;99871.81;3082019;46;20443;-68
2023/10/30 05:35:53;;;;;;;6.73;2.00;;;13.50;92.40;;;14.91;64.51;99875.28;3082574;46;20433;-67
2023/10/30 05:38:22;;;;;;;8.33;2.40;;;13.40;92.30;;;14.90;64.63;99871.81;3081877;46;20459;-67
2023/10/30 05:40:50;;;;;;;7.87;2.10;;;13.40;92.40;;;14.89;64.65;99877.34;3082509;46;20545;-67
2023/10/30 05:43:19;;;;;;;6.23;1.70;;;13.40;92.40;;;14.87;64.49;99871.47;3082404;46;20445;-67
2023/10/30 05:45:48;;;;;;;4.93;2.37;;;13.40;92.40;;;14.83;65.03;99871.09;3083021;46;21021;-67
2023/10/30 05:48:16;;;;;;;6.60;1.50;;;13.50;92.50;;;14.81;64.85;99873.16;3082205;46;20481;-72
2023/10/30 05:50:45;;;;;;;5.93;2.27;;;13.40;92.40;;;14.77;65.10;99872.00;3082416;46;20438;-68
2023/10/30 05:53:13;;;;;;;4.17;1.97;;;13.40;92.50;;;14.72;65.14;99868.38;3082188;46;20897;-67
2023/10/30 05:55:43;;;;;;;4.73;2.30;;;13.40;92.60;;;14.71;65.20;99861.47;3083223;46;20505;-67
2023/10/30 05:58:12;;;;;;;12.27;2.50;;;13.40;92.60;;;14.68;65.68;99873.31;3082484;46;20450;-70
2023/10/30 06:00:40;;;;;;;14.07;2.23;;;13.40;92.60;;;14.66;65.50;99870.09;3082282;46;21032;-67
2023/10/30 06:03:13;;;;;;;9.50;2.27;;;13.30;92.60;;;14.66;65.53;99870.09;3082135;46;21038;-67
2023/10/30 06:05:42;;;;;;;4.80;1.87;;;13.30;92.60;;;14.67;65.72;99874.34;3082454;46;20506;-68
2023/10/30 06:08:11;;;;;;;9.00;2.53;;;13.30;92.70;;;14.65;65.91;99881.72;3082562;46;20428;-67
2023/10/30 06:10:39;;;;;;;9.27;2.40;;;13.30;92.70;;;14.60;65.70;99884.22;3082289;46;20508;-68
2023/10/30 06:13:08;;;;;;;6.57;2.00;;;13.30;92.80;;;14.60;65.98;99892.16;3081768;46;20488;-67
2023/10/30 06:15:37;;;;;;;8.40;2.10;;;13.30;92.80;;;14.61;65.88;99898.28;3082648;46;20548;-68
2023/10/30 06:18:05;;;;;;;5.77;2.30;;;13.20;92.80;;;14.60;65.55;99902.75;3082740;46;20430;-66
2023/10/30 06:20:34;;;;;;;7.30;2.20;;;13.20;92.90;;;14.59;66.11;99897.69;3081549;46;20568;-67
2023/10/30 06:23:03;;;;;;;11.27;2.00;;;13.20;92.90;;;14.58;66.18;99902.16;3081967;46;20456;-67
2023/10/30 06:25:31;;;;;;;10.07;2.00;;;13.20;92.90;;;14.55;66.09;99905.25;3082374;46;20450;-68
2023/10/30 06:28:00;;;;;;;4.43;1.80;;;13.20;92.90;;;14.55;65.77;99915.84;3080801;46;20424;-66
2023/10/30 06:30:28;;;;;;;8.30;2.03;;;13.20;92.90;;;14.54;66.18;99916.06;3082097;46;20549;-68
2023/10/30 06:32:56;;;;;;;7.33;2.20;;;13.20;93.00;;;14.54;66.13;99911.59;3080891;46;20424;-67
2023/10/30 06:35:25;;;;;;;7.60;2.13;;;13.10;93.00;;;14.53;66.01;99915.25;3082029;46;20506;-67
2023/10/30 06:37:53;;;;;;;6.37;2.23;;;13.10;93.00;;;14.51;66.29;99922.63;3081932;46;20423;-69
2023/10/30 06:40:22;;;;;;;6.77;2.37;;;13.20;93.10;;;14.52;66.51;99921.59;3081802;46;20538;-67
2023/10/30 06:42:50;;;;;;;11.17;2.60;;;13.10;93.00;;;14.48;66.41;99917.75;3081917;46;20952;-67
2023/10/30 06:45:18;;;;;;;6.53;2.00;;;13.10;93.10;;;14.48;66.46;99925.69;3082156;46;20431;-68
2023/10/30 06:47:47;;;;;;;6.57;2.10;;;13.10;93.10;;;14.50;66.41;99928.94;3081735;46;20427;-67
2023/10/30 06:50:15;;;;;;;7.17;2.83;;;13.10;93.10;;;14.53;66.39;99933.78;3081907;46;20443;-67
2023/10/30 06:52:44;;;;;;;7.37;2.20;;;13.10;93.10;;;14.54;66.51;99935.44;3081215;46;20450;-67
2023/10/30 06:55:12;;;;;;;8.67;2.27;;;13.10;93.20;;;14.55;66.42;99937.03;3082286;46;21006;-67
2023/10/30 06:57:41;;;;;;;11.27;2.13;;;13.10;93.10;;;14.55;66.13;99944.97;3082334;46;20431;-67
2023/10/30 07:00:10;;;;;;;7.70;2.23;;;13.10;93.20;;;14.56;66.00;99943.13;3081783;46;20446;-68
2023/10/30 07:02:40;;;;;;;5.83;1.80;;;13.10;93.20;;;14.52;66.36;99940.13;3081066;46;20457;-67
2023/10/30 07:05:08;;;;;;;8.50;2.00;;;13.10;93.20;;;14.50;66.25;99939.53;3081980;46;20450;-67
2023/10/30 07:07:37;;;;;;;8.03;2.50;;;13.10;93.20;;;14.49;66.60;99940.56;3082156;46;20529;-67
2023/10/30 07:10:06;;;;;;;7.77;2.30;;;13.10;93.20;;;14.51;66.17;99941.16;3081494;46;20483;-67
2023/10/30 07:12:34;;;;;;;7.73;2.47;;;13.10;93.20;;;14.55;66.48;99942.31;3081246;46;20592;-68
2023/10/30 07:15:03;;;;;;;11.83;2.63;;;13.10;93.20;;;14.57;66.06;99950.84;3082125;46;21127;-68
2023/10/30 07:17:32;;;;;;;8.07;2.20;;;13.10;93.20;;;14.59;65.87;99954.13;3081615;46;21049;-68
2023/10/30 07:20:00;;;;;;;4.80;2.20;;;13.10;93.20;;;14.58;66.29;99946.38;3080897;46;21108;-68
2023/10/30 07:22:29;;;;;;;8.30;2.20;;;13.10;93.10;;;14.56;65.95;99954.56;3081177;46;20486;-67
2023/10/30 07:24:57;;;;;;;10.67;2.53;;;13.10;93.20;;;14.53;66.24;99954.97;3082195;46;20571;-67
2023/10/30 07:27:26;;;;;;;7.17;2.20;;;13.10;93.10;;;14.53;66.22;99965.56;3081380;46;20427;-67
2023/10/30 07:29:54;;;;;;;5.90;1.67;;;13.10;93.10;;;14.54;66.11;99966.38;3081227;46;20452;-68
2023/10/30 07:32:23;;;;;;;7.10;2.20;;;13.10;93.10;;;14.53;66.15;99976.16;3080882;46;20525;-69
2023/10/30 07:34:51;;;;;;;13.10;2.40;;;13.10;93.20;;;14.52;66.55;99971.91;3080940;46;20455;-67
2023/10/30 07:37:20;;;;;;;5.93;1.80;;;13.20;93.30;;;14.52;66.33;99966.63;3081725;46;21112;-67
2023/10/30 07:39:48;;;;;;;7.60;2.33;;;13.10;93.30;;;14.52;66.45;99966.63;3080948;46;20501;-68
2023/10/30 07:42:16;;;;;;;7.67;2.20;;;13.10;93.30;;;14.50;66.58;99960.72;3081107;46;20598;-67
2023/10/30 07:44:45;;;;;;;10.20;2.67;;;13.10;93.30;;;14.55;66.71;99958.22;3079475;46;20431;-69
2023/10/30 07:47:14;;;;;;;8.07;2.10;;;13.10;93.40;;;14.56;66.35;99959.84;3081390;46;20564;-68
2023/10/30 07:49:45;;;;;;;8.87;2.50;;;13.20;93.40;;;14.62;66.79;99963.47;3080695;46;20530;-67
2023/10/30 07:52:14;;;;;;;6.70;2.20;;;13.20;93.40;;;14.66;66.41;99970.75;3081298;46;20489;-67
2023/10/30 07:54:42;;;;;;;7.60;2.50;;;13.20;93.50;;;14.70;66.35;99966.63;3080709;46;20541;-66
2023/10/30 07:57:10;;;;;;;10.97;2.50;;;13.20;93.40;;;14.79;66.56;99973.25;3081242;46;20455;-69
2023/10/30 07:59:39;;;;;;;7.40;2.07;;;13.30;93.50;;;14.84;66.32;99968.09;3080827;46;20460;-67
2023/10/30 08:02:07;;;;;;;11.03;2.60;;;13.30;93.40;;;14.91;66.09;99974.13;3081011;46;20542;-67
2023/10/30 08:04:36;;;;;;;8.17;2.40;;;13.40;93.40;;;15.00;66.01;99971.19;3081285;46;20464;-67
2023/10/30 08:07:07;;;;;;;9.80;2.53;;;13.40;93.40;;;14.97;65.65;99967.16;3081579;46;20427;-67
2023/10/30 08:09:36;;;;;;;11.10;2.10;;;13.50;93.20;;;15.02;65.68;99963.81;3080484;46;20524;-69
2023/10/30 08:12:05;;;;;;;7.87;2.30;;;13.50;93.20;;;15.09;65.66;99967.19;3081254;46;20603;-67
2023/10/30 08:14:33;;;;;;;7.17;1.80;;;13.60;93.10;;;15.16;65.38;99978.53;3079983;46;20465;-67
2023/10/30 08:17:03;;;;;;;9.47;2.67;;;13.60;93.10;;;15.23;65.22;99981.91;3081374;46;20431;-68
2023/10/30 08:19:32;;;;;;;4.83;1.70;;;13.70;93.10;;;15.30;65.04;99985.28;3080705;46;20549;-67
2023/10/30 08:22:00;;;;;;;4.80;2.10;;;13.80;93.00;;;15.37;65.07;99988.66;3080495;46;20507;-64
2023/10/30 08:24:29;;;;;;;8.00;2.20;;;13.80;93.00;;;15.46;64.98;99976.72;3081292;46;20501;-67
2023/10/30 08:26:57;;;;;;;6.33;2.23;;;13.90;93.00;;;15.54;64.76;99979.09;3080428;46;20479;-69
2023/10/30 08:29:26;;;;;;;5.77;2.00;;;13.90;92.90;;;15.61;64.38;99985.09;3080250;46;20473;-67
2023/10/30 08:31:55;;;;;;;5.63;1.97;;;13.90;92.80;;;15.66;64.04;99987.91;3081075;46;20428;-68
2023/10/30 08:34:23;;;;;;;9.07;2.17;;;14.10;92.70;;;15.72;64.27;99986.97;3080491;46;20456;-67
2023/10/30 08:36:52;;;;;;;8.17;2.30;;;14.10;92.90;;;15.79;63.90;99995.66;3080621;46;20431;-67
2023/10/30 08:39:20;;;;;;;3.77;2.13;;;14.20;92.50;;;15.86;63.81;99999.00;3080856;46;20545;-67
2023/10/30 08:41:49;;;;;;;7.13;2.20;;;14.20;92.50;;;15.87;63.24;99992.69;3080711;46;20443;-67
2023/10/30 08:44:17;;;;;;;6.77;2.03;;;14.30;92.10;;;15.98;63.52;99991.88;3079373;46;20452;-67
2023/10/30 08:46:46;;;;;;;14.17;2.70;;;14.40;92.30;;;16.06;62.91;100004.84;3080419;46;20432;-67
2023/10/30 08:49:14;;;;;;;7.70;2.23;;;14.50;92.10;;;16.23;63.11;99987.22;3080673;46;20510;-69
2023/10/30 08:51:43;;;;;;;8.13;2.27;;;14.50;92.20;;;16.46;62.91;99991.72;3080970;46;20451;-68
2023/10/30 08:54:32;;;;;;;9.63;2.27;;;14.70;92.60;;;16.76;62.79;100004.88;3080302;46;20531;-69
2023/10/30 08:57:01;;;;;;;8.37;2.47;;;14.90;92.40;;;16.89;61.59;99994.84;3080309;46;20525;-67
2023/10/30 08:59:43;;;;;;;15.10;9.07;;;15.10;91.90;;;16.89;60.45;100010.78;3080235;46;20439;-67
2023/10/30 09:02:11;;;;;;;6.27;2.20;;;15.30;90.90;;;16.96;60.45;100021.28;3079957;46;21025;-68
2023/10/30 09:04:40;;;;;;;7.63;2.47;;;15.40;90.60;;;17.02;60.18;100015.03;3080564;46;20444;-67
2023/10/30 09:07:09;;;;;;;8.50;1.90;;;15.50;90.40;;;17.09;60.14;100023.69;3080991;46;20511;-67
2023/10/30 09:09:40;;;;;;;6.83;2.40;;;15.50;90.40;;;17.19;59.93;100010.59;3079748;46;20467;-67
2023/10/30 09:12:08;;;;;;;11.17;2.67;;;15.60;90.40;;;17.26;59.45;100016.59;3079833;46;20431;-67
2023/10/30 09:14:38;;;;;;;6.27;2.43;;;15.60;90.20;;;17.34;59.27;100002.94;3080113;46;21019;-70
2023/10/30 09:17:09;;;;;;;10.37;2.47;;;15.70;90.10;;;17.42;58.43;100009.72;3080562;46;20433;-67
2023/10/30 09:19:38;;;;;;;10.57;2.50;;;15.70;89.60;;;17.47;58.40;100012.50;3080129;46;20497;-69
2023/10/30 09:22:06;;;;;;;8.37;2.20;;;15.70;89.80;;;17.51;58.40;100016.28;3080292;46;20501;-71
2023/10/30 09:24:35;;;;;;;5.27;2.17;;;15.80;89.50;;;17.53;58.26;100017.69;3080513;46;20427;-68
2023/10/30 09:27:03;;;;;;;11.93;2.60;;;15.80;89.20;;;17.56;58.09;100025.22;3079667;46;20572;-67
2023/10/30 09:29:32;;;;;;;6.67;2.47;;;15.90;89.10;;;17.55;58.00;100026.25;3080178;46;20442;-66
2023/10/30 09:32:03;;;;;;;11.80;2.17;;;15.90;88.80;;;17.56;57.99;100027.88;3079780;46;20506;-67
2023/10/30 09:34:31;;;;;;;6.63;1.83;;;15.90;88.70;;;17.47;57.99;100021.25;3079732;46;20575;-67
2023/10/30 09:37:00;;;;;;;8.00;2.30;;;15.90;88.20;;;17.47;58.21;100037.22;3079687;46;20600;-68
2023/10/30 09:39:28;;;;;;;6.70;2.30;;;16.00;88.40;;;17.52;58.03;100034.69;3080164;46;21017;-69
2023/10/30 09:42:02;;;;;;;9.00;1.97;;;16.00;88.50;;;17.61;58.21;100029.81;3079247;46;21095;-67
2023/10/30 09:44:30;;;;;;;6.50;2.43;;;16.00;88.70;;;17.68;57.88;100029.69;3078478;46;20455;-67
2023/10/30 09:47:03;;;;;;;8.00;2.10;;;16.00;88.70;;;17.76;58.00;100032.75;3079774;46;20929;-69
2023/10/30 09:49:35;;;;;;;6.77;2.20;;;16.10;88.70;;;17.77;57.74;100017.59;3079772;46;20495;-68
2023/10/30 09:52:07;;;;;;;7.73;1.97;;;16.10;88.20;;;17.78;57.59;100021.88;3079165;46;20549;-69
2023/10/30 09:54:37;;;;;;;6.43;2.20;;;16.10;88.20;;;17.81;57.41;100032.03;3079657;46;20430;-67
2023/10/30 09:57:12;;;;;;;10.03;2.40;;;16.20;88.00;;;17.83;56.83;100021.97;3079913;46;20685;-69
2023/10/30 09:59:43;;;;;;;30.70;18.90;;;16.20;87.70;;;17.92;57.67;100012.56;3079616;46;20443;-68
2023/10/30 10:02:12;;;;;;;9.50;2.07;;;16.30;88.20;;;17.94;56.88;100019.25;3079475;46;21083;-70
2023/10/30 10:04:40;;;;;;;9.30;2.70;;;16.30;87.50;;;18.00;56.99;100020.13;3079730;46;20510;-68
2023/10/30 10:07:11;;;;;;;10.23;2.60;;;16.30;87.60;;;18.03;56.62;100019.66;3080918;46;20438;-68
2023/10/30 10:10:03;;;;;;;8.03;2.23;;;16.40;87.30;;;17.96;56.64;100011.81;3081579;46;21027;-68
2023/10/30 10:12:33;;;;;;;14.47;5.40;;;16.40;87.10;;;18.08;56.77;100014.41;3081612;46;20462;-69
2023/10/30 10:15:06;;;;;;;7.07;2.60;;;16.40;87.50;;;18.12;56.65;100020.88;3082127;46;20435;-67
2023/10/30 10:17:42;;;;;;;4.63;2.30;;;16.50;87.30;;;18.11;56.84;100021.94;3082375;46;20451;-68
2023/10/30 10:20:11;;;;;;;6.33;2.03;;;16.50;87.00;;;18.20;56.85;100023.16;3081691;46;20443;-69
2023/10/30 10:22:40;;;;;;;8.87;2.47;;;16.50;87.30;;;18.26;56.37;100022.97;3081306;46;20424;-69
2023/10/30 10:25:15;;;;;;;7.40;2.33;;;16.60;87.30;;;18.25;56.48;100016.06;3081741;46;20451;-69